sensor_id;sensor_type;location;lat;lon;timestamp;pressure;altitude;pressure_sealevel;temperature;humidity
41636;BME280;27623;51.966;4.602;2022-08-30T00:01:29;65309.91;;;19.41;89.12
41636;BME280;27623;51.966;4.602;2022-08-30T00:03:56;65280.13;;;19.44;88.40
41636;BME280;27623;51.966;4.602;2022-08-30T00:06:23;65240.41;;;19.29;89.37
41636;BME280;27623;51.966;4.602;2022-08-30T00:08:50;65272.53;;;19.30;89.22
41636;BME280;27623;51.966;4.602;2022-08-30T00:11:24;65262.19;;;19.30;89.29
41636;BME280;27623;51.966;4.602;2022-08-30T00:13:51;65281.44;;;19.24;89.78
41636;BME280;27623;51.966;4.602;2022-08-30T00:16:19;65264.44;;;19.25;89.26
41636;BME280;27623;51.966;4.602;2022-08-30T00:18:45;65257.91;;;19.12;90.05
41636;BME280;27623;51.966;4.602;2022-08-30T00:21:11;65215.22;;;18.99;90.32
41636;BME280;27623;51.966;4.602;2022-08-30T00:23:38;65269.19;;;19.10;90.25
41636;BME280;27623;51.966;4.602;2022-08-30T00:26:05;65222.75;;;19.03;90.55
41636;BME280;27623;51.966;4.602;2022-08-30T00:28:31;65274.91;;;19.11;90.19
41636;BME280;27623;51.966;4.602;2022-08-30T00:30:58;65231.13;;;19.13;90.07
41636;BME280;27623;51.966;4.602;2022-08-30T00:33:25;65227.44;;;19.12;89.81
41636;BME280;27623;51.966;4.602;2022-08-30T00:35:53;65245.59;;;19.05;90.38
41636;BME280;27623;51.966;4.602;2022-08-30T00:38:19;65261.59;;;19.13;90.02
41636;BME280;27623;51.966;4.602;2022-08-30T00:40:49;65236.53;;;19.09;90.00
41636;BME280;27623;51.966;4.602;2022-08-30T00:43:21;65254.53;;;19.16;89.84
41636;BME280;27623;51.966;4.602;2022-08-30T00:45:48;65239.41;;;18.97;90.51
41636;BME280;27623;51.966;4.602;2022-08-30T00:48:14;65213.56;;;18.97;90.75
41636;BME280;27623;51.966;4.602;2022-08-30T00:50:43;65238.84;;;18.97;91.05
41636;BME280;27623;51.966;4.602;2022-08-30T00:56:28;65233.69;;;18.97;90.74
41636;BME280;27623;51.966;4.602;2022-08-30T00:58:56;65182.88;;;18.85;91.08
41636;BME280;27623;51.966;4.602;2022-08-30T01:01:24;65250.34;;;18.91;90.91
41636;BME280;27623;51.966;4.602;2022-08-30T01:03:50;65210.41;;;18.80;91.57
41636;BME280;27623;51.966;4.602;2022-08-30T01:06:16;65222.53;;;18.84;91.04
41636;BME280;27623;51.966;4.602;2022-08-30T01:08:43;65212.03;;;18.81;91.48
41636;BME280;27623;51.966;4.602;2022-08-30T01:11:09;65229.78;;;18.76;91.64
41636;BME280;27623;51.966;4.602;2022-08-30T01:13:36;65247.88;;;18.76;91.98
41636;BME280;27623;51.966;4.602;2022-08-30T01:16:03;65255.34;;;18.88;91.63
41636;BME280;27623;51.966;4.602;2022-08-30T01:18:29;65240.66;;;18.77;92.20
41636;BME280;27623;51.966;4.602;2022-08-30T01:23:37;65201.72;;;18.81;92.63
41636;BME280;27623;51.966;4.602;2022-08-30T01:26:04;65245.72;;;18.91;91.95
41636;BME280;27623;51.966;4.602;2022-08-30T01:28:31;65244.00;;;18.97;91.78
41636;BME280;27623;51.966;4.602;2022-08-30T01:30:57;65249.19;;;18.97;92.21
41636;BME280;27623;51.966;4.602;2022-08-30T01:33:23;65240.09;;;19.00;91.86
41636;BME280;27623;51.966;4.602;2022-08-30T01:36:04;65243.47;;;18.96;92.48
41636;BME280;27623;51.966;4.602;2022-08-30T01:38:43;65246.00;;;19.03;91.62
41636;BME280;27623;51.966;4.602;2022-08-30T01:43:45;65247.78;;;18.91;92.74
41636;BME280;27623;51.966;4.602;2022-08-30T01:46:12;65230.94;;;18.94;92.08
41636;BME280;27623;51.966;4.602;2022-08-30T01:48:39;65241.03;;;18.99;92.44
41636;BME280;27623;51.966;4.602;2022-08-30T01:51:05;65213.63;;;18.90;92.22
41636;BME280;27623;51.966;4.602;2022-08-30T01:53:31;65251.38;;;18.99;92.53
41636;BME280;27623;51.966;4.602;2022-08-30T01:55:57;65207.00;;;18.91;92.57
41636;BME280;27623;51.966;4.602;2022-08-30T01:58:23;65269.47;;;18.99;92.43
41636;BME280;27623;51.966;4.602;2022-08-30T02:00:49;65251.38;;;18.99;92.06
41636;BME280;27623;51.966;4.602;2022-08-30T02:03:14;65234.84;;;18.91;92.15
41636;BME280;27623;51.966;4.602;2022-08-30T02:05:40;65252.69;;;18.95;91.95
41636;BME280;27623;51.966;4.602;2022-08-30T02:08:08;65222.97;;;18.99;91.34
41636;BME280;27623;51.966;4.602;2022-08-30T02:10:33;65240.56;;;18.91;91.85
41636;BME280;27623;51.966;4.602;2022-08-30T02:12:59;65252.59;;;18.85;92.29
41636;BME280;27623;51.966;4.602;2022-08-30T02:15:25;65256.66;;;18.84;92.75
41636;BME280;27623;51.966;4.602;2022-08-30T02:17:50;65203.41;;;18.76;93.07
41636;BME280;27623;51.966;4.602;2022-08-30T02:20:16;65220.72;;;18.80;92.50
41636;BME280;27623;51.966;4.602;2022-08-30T02:22:44;65183.88;;;18.77;93.06
41636;BME280;27623;51.966;4.602;2022-08-30T02:25:09;65236.66;;;18.71;93.41
41636;BME280;27623;51.966;4.602;2022-08-30T02:27:35;65263.88;;;18.84;92.76
41636;BME280;27623;51.966;4.602;2022-08-30T02:30:00;65236.16;;;18.87;92.62
41636;BME280;27623;51.966;4.602;2022-08-30T02:32:26;65236.00;;;18.84;92.47
41636;BME280;27623;51.966;4.602;2022-08-30T02:34:51;65247.91;;;18.93;92.02
41636;BME280;27623;51.966;4.602;2022-08-30T02:37:17;65242.16;;;18.76;93.02
41636;BME280;27623;51.966;4.602;2022-08-30T02:39:44;65210.72;;;18.85;92.98
41636;BME280;27623;51.966;4.602;2022-08-30T02:42:10;65222.75;;;18.79;93.17
41636;BME280;27623;51.966;4.602;2022-08-30T02:44:35;65243.53;;;18.89;92.55
41636;BME280;27623;51.966;4.602;2022-08-30T02:47:01;65238.19;;;18.86;92.88
41636;BME280;27623;51.966;4.602;2022-08-30T02:49:26;65250.91;;;18.91;92.42
41636;BME280;27623;51.966;4.602;2022-08-30T02:51:51;65203.38;;;18.83;92.26
41636;BME280;27623;51.966;4.602;2022-08-30T02:54:17;65214.78;;;18.84;92.39
41636;BME280;27623;51.966;4.602;2022-08-30T02:56:48;65220.09;;;18.70;93.29
41636;BME280;27623;51.966;4.602;2022-08-30T02:59:16;65241.06;;;18.75;93.76
41636;BME280;27623;51.966;4.602;2022-08-30T03:01:42;65208.25;;;18.71;94.09
41636;BME280;27623;51.966;4.602;2022-08-30T03:04:08;65194.53;;;18.82;93.07
41636;BME280;27623;51.966;4.602;2022-08-30T03:06:34;65240.28;;;18.79;93.24
41636;BME280;27623;51.966;4.602;2022-08-30T03:09:00;65236.44;;;18.75;93.50
41636;BME280;27623;51.966;4.602;2022-08-30T03:11:26;65218.06;;;18.70;94.19
41636;BME280;27623;51.966;4.602;2022-08-30T03:13:51;65212.19;;;18.67;94.01
41636;BME280;27623;51.966;4.602;2022-08-30T03:16:17;65211.00;;;18.73;94.05
41636;BME280;27623;51.966;4.602;2022-08-30T03:18:42;65221.03;;;18.68;94.09
41636;BME280;27623;51.966;4.602;2022-08-30T03:21:09;65210.00;;;18.82;93.68
41636;BME280;27623;51.966;4.602;2022-08-30T03:23:35;65221.44;;;18.83;93.35
41636;BME280;27623;51.966;4.602;2022-08-30T03:26:00;65217.50;;;18.70;93.70
41636;BME280;27623;51.966;4.602;2022-08-30T03:28:26;65224.84;;;18.72;94.00
41636;BME280;27623;51.966;4.602;2022-08-30T03:30:51;65187.38;;;18.75;93.99
41636;BME280;27623;51.966;4.602;2022-08-30T03:33:16;65204.59;;;18.70;94.25
41636;BME280;27623;51.966;4.602;2022-08-30T03:35:44;65221.88;;;18.74;93.63
41636;BME280;27623;51.966;4.602;2022-08-30T03:38:10;65249.72;;;18.73;94.41
41636;BME280;27623;51.966;4.602;2022-08-30T03:40:35;65223.81;;;18.64;94.87
41636;BME280;27623;51.966;4.602;2022-08-30T03:43:01;65204.47;;;18.60;95.39
41636;BME280;27623;51.966;4.602;2022-08-30T03:45:26;65200.38;;;18.68;94.54
41636;BME280;27623;51.966;4.602;2022-08-30T03:47:52;65220.38;;;18.51;95.34
41636;BME280;27623;51.966;4.602;2022-08-30T03:50:17;65185.19;;;18.49;95.53
41636;BME280;27623;51.966;4.602;2022-08-30T03:52:42;65181.06;;;18.58;95.18
41636;BME280;27623;51.966;4.602;2022-08-30T03:55:10;65214.28;;;18.52;95.24
41636;BME280;27623;51.966;4.602;2022-08-30T03:57:35;65200.63;;;18.57;95.01
41636;BME280;27623;51.966;4.602;2022-08-30T04:00:03;65220.88;;;18.59;94.47
41636;BME280;27623;51.966;4.602;2022-08-30T04:02:28;65183.69;;;18.50;94.83
41636;BME280;27623;51.966;4.602;2022-08-30T04:04:54;65154.22;;;18.49;94.55
41636;BME280;27623;51.966;4.602;2022-08-30T04:07:19;65154.59;;;18.47;94.45
41636;BME280;27623;51.966;4.602;2022-08-30T04:09:45;65201.94;;;18.53;94.46
41636;BME280;27623;51.966;4.602;2022-08-30T04:12:11;65178.22;;;18.45;94.29
41636;BME280;27623;51.966;4.602;2022-08-30T04:14:36;65181.56;;;18.41;94.11
41636;BME280;27623;51.966;4.602;2022-08-30T04:17:02;65164.06;;;18.42;94.10
41636;BME280;27623;51.966;4.602;2022-08-30T04:19:30;65136.06;;;18.40;94.45
41636;BME280;27623;51.966;4.602;2022-08-30T04:21:55;65161.59;;;18.28;94.62
41636;BME280;27623;51.966;4.602;2022-08-30T04:24:22;65181.63;;;18.34;94.57
41636;BME280;27623;51.966;4.602;2022-08-30T04:26:47;65178.88;;;18.32;94.66
41636;BME280;27623;51.966;4.602;2022-08-30T04:29:13;65148.97;;;18.16;95.55
41636;BME280;27623;51.966;4.602;2022-08-30T04:31:41;65135.28;;;18.20;95.61
41636;BME280;27623;51.966;4.602;2022-08-30T04:34:11;65130.91;;;18.16;95.42
41636;BME280;27623;51.966;4.602;2022-08-30T04:36:37;65134.59;;;18.17;95.14
41636;BME280;27623;51.966;4.602;2022-08-30T04:39:05;65152.31;;;18.12;95.56
41636;BME280;27623;51.966;4.602;2022-08-30T04:41:30;65127.94;;;18.18;95.35
41636;BME280;27623;51.966;4.602;2022-08-30T04:43:56;65126.91;;;18.10;95.33
41636;BME280;27623;51.966;4.602;2022-08-30T04:46:21;65117.28;;;18.13;95.10
41636;BME280;27623;51.966;4.602;2022-08-30T04:48:46;65108.91;;;18.03;95.65
41636;BME280;27623;51.966;4.602;2022-08-30T04:51:16;65133.69;;;18.11;95.33
41636;BME280;27623;51.966;4.602;2022-08-30T04:53:42;65161.16;;;18.13;95.09
41636;BME280;27623;51.966;4.602;2022-08-30T04:56:15;65126.13;;;18.14;94.87
41636;BME280;27623;51.966;4.602;2022-08-30T04:58:42;65128.63;;;18.04;95.62
41636;BME280;27623;51.966;4.602;2022-08-30T05:01:20;65106.06;;;17.91;95.88
41636;BME280;27623;51.966;4.602;2022-08-30T05:03:47;65098.09;;;17.95;95.99
41636;BME280;27623;51.966;4.602;2022-08-30T05:06:13;65128.63;;;18.04;95.87
41636;BME280;27623;51.966;4.602;2022-08-30T05:08:39;65096.66;;;17.89;96.04
41636;BME280;27623;51.966;4.602;2022-08-30T05:11:05;65165.69;;;17.96;96.22
41636;BME280;27623;51.966;4.602;2022-08-30T05:13:32;65106.66;;;17.84;96.74
41636;BME280;27623;51.966;4.602;2022-08-30T05:15:58;65124.88;;;17.87;97.13
41636;BME280;27623;51.966;4.602;2022-08-30T05:18:24;65106.59;;;17.91;96.81
41636;BME280;27623;51.966;4.602;2022-08-30T05:21:05;65140.19;;;17.84;96.96
41636;BME280;27623;51.966;4.602;2022-08-30T05:23:30;65084.22;;;17.80;97.32
41636;BME280;27623;51.966;4.602;2022-08-30T05:25:56;65122.78;;;17.94;96.83
41636;BME280;27623;51.966;4.602;2022-08-30T05:28:24;65141.38;;;17.95;97.27
41636;BME280;27623;51.966;4.602;2022-08-30T05:30:49;65128.28;;;17.99;96.77
41636;BME280;27623;51.966;4.602;2022-08-30T05:33:14;65130.34;;;17.92;97.52
41636;BME280;27623;51.966;4.602;2022-08-30T05:35:40;65148.16;;;18.03;96.71
41636;BME280;27623;51.966;4.602;2022-08-30T05:38:05;65130.69;;;17.97;97.29
41636;BME280;27623;51.966;4.602;2022-08-30T05:40:30;65140.28;;;17.94;98.04
41636;BME280;27623;51.966;4.602;2022-08-30T05:42:56;65116.88;;;17.98;97.88
41636;BME280;27623;51.966;4.602;2022-08-30T05:45:21;65137.28;;;18.03;97.41
41636;BME280;27623;51.966;4.602;2022-08-30T05:47:47;65135.97;;;18.06;97.13
41636;BME280;27623;51.966;4.602;2022-08-30T05:50:12;65135.09;;;18.01;97.62
41636;BME280;27623;51.966;4.602;2022-08-30T05:52:39;65137.34;;;17.96;97.98
41636;BME280;27623;51.966;4.602;2022-08-30T05:55:07;65134.38;;;17.98;98.34
41636;BME280;27623;51.966;4.602;2022-08-30T05:57:34;65162.53;;;18.02;98.52
41636;BME280;27623;51.966;4.602;2022-08-30T06:00:03;65102.88;;;17.97;98.41
41636;BME280;27623;51.966;4.602;2022-08-30T06:02:29;65138.56;;;18.06;98.30
41636;BME280;27623;51.966;4.602;2022-08-30T06:04:54;65138.94;;;18.04;98.34
41636;BME280;27623;51.966;4.602;2022-08-30T06:07:20;65138.16;;;18.08;98.28
41636;BME280;27623;51.966;4.602;2022-08-30T06:09:45;65144.56;;;18.12;97.88
41636;BME280;27623;51.966;4.602;2022-08-30T06:12:10;65137.16;;;18.17;97.51
41636;BME280;27623;51.966;4.602;2022-08-30T06:14:36;65133.31;;;18.13;98.33
41636;BME280;27623;51.966;4.602;2022-08-30T06:17:03;65183.00;;;18.24;97.71
41636;BME280;27623;51.966;4.602;2022-08-30T06:19:28;65152.25;;;18.19;98.25
41636;BME280;27623;51.966;4.602;2022-08-30T06:21:53;65188.34;;;18.26;98.14
41636;BME280;27623;51.966;4.602;2022-08-30T06:24:19;65178.19;;;18.29;97.56
41636;BME280;27623;51.966;4.602;2022-08-30T06:26:46;65160.25;;;18.31;97.16
41636;BME280;27623;51.966;4.602;2022-08-30T06:29:14;65172.41;;;18.35;97.07
41636;BME280;27623;51.966;4.602;2022-08-30T06:31:40;65145.84;;;18.15;98.09
41636;BME280;27623;51.966;4.602;2022-08-30T06:34:05;65135.63;;;18.25;97.57
41636;BME280;27623;51.966;4.602;2022-08-30T06:36:34;65221.75;;;18.40;96.33
41636;BME280;27623;51.966;4.602;2022-08-30T06:39:01;65188.44;;;18.36;96.31
41636;BME280;27623;51.966;4.602;2022-08-30T06:41:29;65159.88;;;18.33;96.61
41636;BME280;27623;51.966;4.602;2022-08-30T06:43:59;65158.94;;;18.35;96.45
41636;BME280;27623;51.966;4.602;2022-08-30T06:46:28;65176.41;;;18.41;96.10
41636;BME280;27623;51.966;4.602;2022-08-30T06:48:57;65201.84;;;18.43;96.23
41636;BME280;27623;51.966;4.602;2022-08-30T06:51:27;65187.28;;;18.42;95.93
41636;BME280;27623;51.966;4.602;2022-08-30T06:53:53;65179.00;;;18.41;95.70
41636;BME280;27623;51.966;4.602;2022-08-30T06:56:19;65202.56;;;18.46;94.91
41636;BME280;27623;51.966;4.602;2022-08-30T06:58:45;65181.91;;;18.46;94.66
41636;BME280;27623;51.966;4.602;2022-08-30T07:01:14;65212.50;;;18.48;94.05
41636;BME280;27623;51.966;4.602;2022-08-30T07:03:40;65228.84;;;18.54;93.83
41636;BME280;27623;51.966;4.602;2022-08-30T07:06:06;65179.09;;;18.51;93.89
41636;BME280;27623;51.966;4.602;2022-08-30T07:08:31;65160.72;;;18.46;93.43
41636;BME280;27623;51.966;4.602;2022-08-30T07:10:56;65211.59;;;18.43;92.70
41636;BME280;27623;51.966;4.602;2022-08-30T07:13:22;65185.91;;;18.52;92.23
41636;BME280;27623;51.966;4.602;2022-08-30T07:15:48;65165.47;;;18.48;91.28
41636;BME280;27623;51.966;4.602;2022-08-30T07:18:14;65229.22;;;18.52;90.90
41636;BME280;27623;51.966;4.602;2022-08-30T07:21:05;65216.09;;;18.57;90.56
41636;BME280;27623;51.966;4.602;2022-08-30T07:23:31;65215.72;;;18.59;90.90
41636;BME280;27623;51.966;4.602;2022-08-30T07:25:56;65206.31;;;18.57;90.21
41636;BME280;27623;51.966;4.602;2022-08-30T07:28:22;65249.81;;;18.66;89.50
41636;BME280;27623;51.966;4.602;2022-08-30T07:30:47;65226.88;;;18.71;89.85
41636;BME280;27623;51.966;4.602;2022-08-30T07:33:12;65248.50;;;18.70;89.05
41636;BME280;27623;51.966;4.602;2022-08-30T07:35:38;65247.69;;;18.74;88.69
41636;BME280;27623;51.966;4.602;2022-08-30T07:38:03;65221.50;;;18.76;89.36
41636;BME280;27623;51.966;4.602;2022-08-30T07:40:29;65230.50;;;18.79;88.67
41636;BME280;27623;51.966;4.602;2022-08-30T07:42:54;65246.94;;;18.78;89.18
41636;BME280;27623;51.966;4.602;2022-08-30T07:45:20;65227.38;;;18.79;88.21
41636;BME280;27623;51.966;4.602;2022-08-30T07:47:45;65228.81;;;18.85;87.19
41636;BME280;27623;51.966;4.602;2022-08-30T07:50:11;65236.94;;;18.83;84.49
41636;BME280;27623;51.966;4.602;2022-08-30T07:52:37;65240.06;;;18.83;83.88
41636;BME280;27623;51.966;4.602;2022-08-30T07:55:04;65259.59;;;18.90;83.82
41636;BME280;27623;51.966;4.602;2022-08-30T07:57:30;65254.91;;;18.97;82.94
41636;BME280;27623;51.966;4.602;2022-08-30T07:59:58;65253.56;;;19.01;82.20
41636;BME280;27623;51.966;4.602;2022-08-30T08:02:24;65269.97;;;19.06;82.65
41636;BME280;27623;51.966;4.602;2022-08-30T08:04:49;65254.38;;;19.13;81.99
41636;BME280;27623;51.966;4.602;2022-08-30T08:07:15;65264.34;;;19.15;81.57
41636;BME280;27623;51.966;4.602;2022-08-30T08:09:40;65321.13;;;19.22;80.87
41636;BME280;27623;51.966;4.602;2022-08-30T08:12:06;65286.75;;;19.27;81.21
41636;BME280;27623;51.966;4.602;2022-08-30T08:14:32;65313.50;;;19.32;80.38
41636;BME280;27623;51.966;4.602;2022-08-30T08:16:58;65333.94;;;19.37;79.66
41636;BME280;27623;51.966;4.602;2022-08-30T08:19:24;65323.16;;;19.46;79.81
41636;BME280;27623;51.966;4.602;2022-08-30T08:21:49;65331.06;;;19.48;79.68
41636;BME280;27623;51.966;4.602;2022-08-30T08:24:14;65330.31;;;19.52;79.30
41636;BME280;27623;51.966;4.602;2022-08-30T08:26:40;65323.97;;;19.59;78.59
41636;BME280;27623;51.966;4.602;2022-08-30T08:29:07;65340.38;;;19.64;78.41
41636;BME280;27623;51.966;4.602;2022-08-30T08:31:34;65348.63;;;19.72;76.84
41636;BME280;27623;51.966;4.602;2022-08-30T08:34:04;65372.94;;;19.80;76.85
41636;BME280;27623;51.966;4.602;2022-08-30T08:36:30;65361.59;;;19.88;77.22
41636;BME280;27623;51.966;4.602;2022-08-30T08:38:57;65377.19;;;19.98;77.33
41636;BME280;27623;51.966;4.602;2022-08-30T08:49:24;65459.28;;;20.43;74.21
41636;BME280;27623;51.966;4.602;2022-08-30T08:51:49;65449.25;;;20.48;73.74
41636;BME280;27623;51.966;4.602;2022-08-30T08:54:39;65476.03;;;20.53;71.95
41636;BME280;27623;51.966;4.602;2022-08-30T08:57:08;65508.69;;;20.62;72.30
41636;BME280;27623;51.966;4.602;2022-08-30T08:59:34;65479.09;;;20.61;70.05
41636;BME280;27623;51.966;4.602;2022-08-30T09:02:17;65476.59;;;20.71;69.90
41636;BME280;27623;51.966;4.602;2022-08-30T09:04:43;65515.41;;;20.78;70.17
41636;BME280;27623;51.966;4.602;2022-08-30T09:07:31;65522.88;;;20.89;71.20
41636;BME280;27623;51.966;4.602;2022-08-30T09:09:59;65526.91;;;20.96;70.39
41636;BME280;27623;51.966;4.602;2022-08-30T09:12:25;65547.94;;;21.01;70.15
41636;BME280;27623;51.966;4.602;2022-08-30T09:14:57;65554.19;;;21.09;70.75
41636;BME280;27623;51.966;4.602;2022-08-30T09:17:25;65557.25;;;21.16;69.87
41636;BME280;27623;51.966;4.602;2022-08-30T09:27:42;65594.81;;;21.44;66.82
41636;BME280;27623;51.966;4.602;2022-08-30T09:30:19;65586.34;;;21.57;67.60
41636;BME280;27623;51.966;4.602;2022-08-30T09:38:25;65648.81;;;21.77;66.35
41636;BME280;27623;51.966;4.602;2022-08-30T09:40:55;65646.91;;;21.80;65.99
41636;BME280;27623;51.966;4.602;2022-08-30T09:43:22;65647.22;;;21.85;64.53
41636;BME280;27623;51.966;4.602;2022-08-30T09:46:05;65668.31;;;21.90;65.01
41636;BME280;27623;51.966;4.602;2022-08-30T09:48:37;65684.38;;;21.98;65.11
41636;BME280;27623;51.966;4.602;2022-08-30T09:56:53;65731.09;;;22.21;64.60
41636;BME280;27623;51.966;4.602;2022-08-30T10:01:57;65702.56;;;22.38;63.25
41636;BME280;27623;51.966;4.602;2022-08-30T10:04:37;65716.97;;;22.44;63.08
41636;BME280;27623;51.966;4.602;2022-08-30T10:10:14;65725.72;;;22.59;61.62
41636;BME280;27623;51.966;4.602;2022-08-30T10:15:32;65776.56;;;22.82;61.12
41636;BME280;27623;51.966;4.602;2022-08-30T10:23:36;65795.97;;;23.10;59.95
41636;BME280;27623;51.966;4.602;2022-08-30T10:28:38;65847.59;;;23.28;57.52
41636;BME280;27623;51.966;4.602;2022-08-30T10:31:10;65845.88;;;23.34;57.18
41636;BME280;27623;51.966;4.602;2022-08-30T10:33:44;65879.78;;;23.44;56.56
41636;BME280;27623;51.966;4.602;2022-08-30T10:36:12;65911.13;;;23.53;55.16
41636;BME280;27623;51.966;4.602;2022-08-30T10:38:40;65870.13;;;23.63;55.32
41636;BME280;27623;51.966;4.602;2022-08-30T10:41:27;65886.22;;;23.71;54.42
41636;BME280;27623;51.966;4.602;2022-08-30T10:44:10;65934.28;;;23.82;53.25
41636;BME280;27623;51.966;4.602;2022-08-30T10:49:31;65950.38;;;24.06;54.00
41636;BME280;27623;51.966;4.602;2022-08-30T10:52:07;66003.78;;;24.26;52.28
41636;BME280;27623;51.966;4.602;2022-08-30T10:54:52;66022.44;;;24.41;50.51
41636;BME280;27623;51.966;4.602;2022-08-30T10:57:19;66002.38;;;24.54;50.77
41636;BME280;27623;51.966;4.602;2022-08-30T10:59:56;66030.97;;;24.61;49.91
41636;BME280;27623;51.966;4.602;2022-08-30T11:05:19;66015.00;;;24.56;46.67
41636;BME280;27623;51.966;4.602;2022-08-30T11:13:20;66085.31;;;25.04;49.12
41636;BME280;27623;51.966;4.602;2022-08-30T11:18:28;66088.47;;;25.21;47.29
41636;BME280;27623;51.966;4.602;2022-08-30T11:21:19;66089.34;;;25.26;46.72
41636;BME280;27623;51.966;4.602;2022-08-30T11:29:31;66087.19;;;25.34;49.22
41636;BME280;27623;51.966;4.602;2022-08-30T11:39:56;66219.66;;;25.81;46.27
41636;BME280;27623;51.966;4.602;2022-08-30T11:42:29;66185.94;;;25.93;46.13
41636;BME280;27623;51.966;4.602;2022-08-30T11:47:56;66215.78;;;26.11;44.58
41636;BME280;27623;51.966;4.602;2022-08-30T11:56:17;66206.44;;;25.95;45.14
41636;BME280;27623;51.966;4.602;2022-08-30T12:04:00;66239.13;;;26.25;42.55
41636;BME280;27623;51.966;4.602;2022-08-30T12:09:10;66229.63;;;26.07;42.32
41636;BME280;27623;51.966;4.602;2022-08-30T12:14:04;66233.13;;;25.96;41.91
41636;BME280;27623;51.966;4.602;2022-08-30T12:16:38;66212.13;;;26.03;42.67
41636;BME280;27623;51.966;4.602;2022-08-30T12:19:27;66217.19;;;26.00;42.47
41636;BME280;27623;51.966;4.602;2022-08-30T12:21:56;66220.75;;;25.99;42.23
41636;BME280;27623;51.966;4.602;2022-08-30T12:24:31;66185.84;;;26.00;41.92
41636;BME280;27623;51.966;4.602;2022-08-30T12:27:01;66205.63;;;25.99;41.38
41636;BME280;27623;51.966;4.602;2022-08-30T12:29:51;66217.13;;;26.08;41.19
41636;BME280;27623;51.966;4.602;2022-08-30T12:32:18;66246.09;;;26.20;40.88
41636;BME280;27623;51.966;4.602;2022-08-30T12:34:51;66228.91;;;26.21;40.24
41636;BME280;27623;51.966;4.602;2022-08-30T12:37:28;66258.94;;;26.41;40.30
41636;BME280;27623;51.966;4.602;2022-08-30T12:40:11;66288.66;;;26.56;39.87
41636;BME280;27623;51.966;4.602;2022-08-30T12:42:39;66320.19;;;26.76;39.61
41636;BME280;27623;51.966;4.602;2022-08-30T12:45:15;66330.41;;;26.80;39.64
41636;BME280;27623;51.966;4.602;2022-08-30T12:47:51;66331.13;;;26.83;40.13
41636;BME280;27623;51.966;4.602;2022-08-30T12:50:30;66348.09;;;26.87;40.99
41636;BME280;27623;51.966;4.602;2022-08-30T12:52:59;66365.84;;;27.03;40.23
41636;BME280;27623;51.966;4.602;2022-08-30T12:55:29;66361.03;;;27.18;39.85
41636;BME280;27623;51.966;4.602;2022-08-30T12:58:07;66418.03;;;27.34;39.63
41636;BME280;27623;51.966;4.602;2022-08-30T13:00:39;66435.81;;;27.50;39.73
41636;BME280;27623;51.966;4.602;2022-08-30T13:03:52;66431.63;;;27.58;39.05
41636;BME280;27623;51.966;4.602;2022-08-30T13:05:51;66482.97;;;27.67;38.30
41636;BME280;27623;51.966;4.602;2022-08-30T13:10:59;66475.66;;;27.84;37.97
41636;BME280;27623;51.966;4.602;2022-08-30T13:13:33;66439.44;;;27.92;37.47
41636;BME280;27623;51.966;4.602;2022-08-30T13:18:45;66487.66;;;27.83;38.23
41636;BME280;27623;51.966;4.602;2022-08-30T13:21:30;66453.75;;;27.69;38.33
41636;BME280;27623;51.966;4.602;2022-08-30T13:24:00;66434.00;;;27.63;38.07
41636;BME280;27623;51.966;4.602;2022-08-30T13:26:28;66452.91;;;27.63;38.26
41636;BME280;27623;51.966;4.602;2022-08-30T13:28:57;66471.78;;;27.64;37.89
41636;BME280;27623;51.966;4.602;2022-08-30T13:31:25;66439.38;;;27.65;37.50
41636;BME280;27623;51.966;4.602;2022-08-30T13:33:52;66466.78;;;27.76;37.15
41636;BME280;27623;51.966;4.602;2022-08-30T13:36:27;66465.56;;;27.82;38.65
41636;BME280;27623;51.966;4.602;2022-08-30T13:38:56;66483.66;;;27.87;39.33
41636;BME280;27623;51.966;4.602;2022-08-30T13:41:25;66489.47;;;27.87;40.08
41636;BME280;27623;51.966;4.602;2022-08-30T13:43:50;66494.88;;;27.90;40.57
41636;BME280;27623;51.966;4.602;2022-08-30T13:46:17;66483.44;;;27.91;40.65
41636;BME280;27623;51.966;4.602;2022-08-30T13:48:44;66479.13;;;27.90;40.71
41636;BME280;27623;51.966;4.602;2022-08-30T13:51:10;66533.59;;;28.06;41.73
41636;BME280;27623;51.966;4.602;2022-08-30T13:53:36;66537.09;;;28.12;40.86
41636;BME280;27623;51.966;4.602;2022-08-30T13:56:03;66519.53;;;28.08;41.17
41636;BME280;27623;51.966;4.602;2022-08-30T13:58:29;66507.72;;;27.94;41.45
41636;BME280;27623;51.966;4.602;2022-08-30T14:00:58;66458.66;;;27.81;41.66
41636;BME280;27623;51.966;4.602;2022-08-30T14:03:23;66432.06;;;27.66;41.96
41636;BME280;27623;51.966;4.602;2022-08-30T14:05:49;66423.91;;;27.61;42.40
41636;BME280;27623;51.966;4.602;2022-08-30T14:08:18;66430.81;;;27.62;42.64
41636;BME280;27623;51.966;4.602;2022-08-30T14:10:46;66449.06;;;27.69;42.42
41636;BME280;27623;51.966;4.602;2022-08-30T14:13:12;66436.19;;;27.65;42.27
41636;BME280;27623;51.966;4.602;2022-08-30T14:15:38;66458.69;;;27.64;42.36
41636;BME280;27623;51.966;4.602;2022-08-30T14:18:04;66433.91;;;27.70;42.65
41636;BME280;27623;51.966;4.602;2022-08-30T14:20:30;66459.31;;;27.74;42.46
41636;BME280;27623;51.966;4.602;2022-08-30T14:22:56;66442.81;;;27.61;42.89
41636;BME280;27623;51.966;4.602;2022-08-30T14:25:22;66391.78;;;27.41;42.06
41636;BME280;27623;51.966;4.602;2022-08-30T14:27:47;66409.25;;;27.35;43.16
41636;BME280;27623;51.966;4.602;2022-08-30T14:30:13;66431.84;;;27.37;43.36
41636;BME280;27623;51.966;4.602;2022-08-30T14:32:38;66409.88;;;27.29;43.16
41636;BME280;27623;51.966;4.602;2022-08-30T14:35:04;66382.56;;;27.28;43.16
41636;BME280;27623;51.966;4.602;2022-08-30T14:37:29;66389.09;;;27.31;43.53
41636;BME280;27623;51.966;4.602;2022-08-30T14:39:55;66361.16;;;27.37;43.57
41636;BME280;27623;51.966;4.602;2022-08-30T14:42:20;66420.50;;;27.31;43.29
41636;BME280;27623;51.966;4.602;2022-08-30T14:44:45;66393.53;;;27.19;43.06
41636;BME280;27623;51.966;4.602;2022-08-30T14:47:11;66302.91;;;27.00;42.96
41636;BME280;27623;51.966;4.602;2022-08-30T14:49:36;66312.00;;;26.87;43.35